createdAt,value
2022-10-12T00:00:59.657Z,99.22
2022-10-12T00:03:26.210Z,99.24
2022-10-12T00:06:01.211Z,98.72
2022-10-12T00:08:27.843Z,98.53
2022-10-12T00:10:54.439Z,98.33
2022-10-12T00:13:22.396Z,98.07
2022-10-12T00:15:48.964Z,98.20
2022-10-12T00:18:15.573Z,98.21
2022-10-12T00:20:42.142Z,98.08
2022-10-12T00:23:08.690Z,98.30
2022-10-12T00:25:36.447Z,98.11
2022-10-12T00:28:03.041Z,97.92
2022-10-12T00:30:31.091Z,97.72
2022-10-12T00:32:57.717Z,97.82
2022-10-12T00:35:24.777Z,98.02
2022-10-12T00:37:53.938Z,97.97
2022-10-12T00:40:20.627Z,97.79
2022-10-12T00:42:47.168Z,98.14
2022-10-12T00:45:13.809Z,98.15
2022-10-12T00:47:48.871Z,98.50
2022-10-12T00:50:21.081Z,98.82
2022-10-12T00:53:00.721Z,99.17
2022-10-12T00:55:30.386Z,99.48
2022-10-12T00:57:57.201Z,99.42
2022-10-12T01:00:23.926Z,99.34
2022-10-12T01:02:53.626Z,99.31
2022-10-12T01:05:20.869Z,99.33
2022-10-12T01:07:47.430Z,98.81
2022-10-12T01:10:14.612Z,98.82
2022-10-12T01:12:43.535Z,99.12
2022-10-12T01:15:11.727Z,99.02
2022-10-12T01:17:45.875Z,98.97
2022-10-12T01:20:34.023Z,99.52
2022-10-12T01:23:20.835Z,99.42
2022-10-12T01:26:08.038Z,99.54
2022-10-12T01:28:45.562Z,99.65
2022-10-12T01:31:20.443Z,99.74
2022-10-12T01:33:53.724Z,99.35
2022-10-12T01:36:31.618Z,99.47
2022-10-12T01:39:03.957Z,99.40
2022-10-12T01:41:36.106Z,99.66
2022-10-12T01:44:02.723Z,99.61
2022-10-12T01:46:52.098Z,99.57
2022-10-12T01:49:22.859Z,99.40
2022-10-12T01:52:16.034Z,100.00
2022-10-12T01:54:53.716Z,100.00
2022-10-12T01:57:28.696Z,100.00
2022-10-12T02:00:02.690Z,100.00
2022-10-12T02:02:38.930Z,100.00
2022-10-12T02:05:12.521Z,99.85
2022-10-12T02:07:42.620Z,99.91
2022-10-12T02:10:14.664Z,99.72
2022-10-12T02:12:43.909Z,99.88
2022-10-12T02:15:12.920Z,99.92
2022-10-12T02:17:44.369Z,100.00
2022-10-12T02:20:15.065Z,99.93
2022-10-12T02:22:44.879Z,99.56
2022-10-12T02:25:16.857Z,99.43
2022-10-12T02:27:49.007Z,99.61
2022-10-12T02:30:19.236Z,99.76
2022-10-12T02:32:54.699Z,99.98
2022-10-12T02:35:26.480Z,99.82
2022-10-12T02:37:56.516Z,99.90
2022-10-12T02:40:30.239Z,99.79
2022-10-12T02:43:11.150Z,99.70
2022-10-12T02:45:40.936Z,99.82
2022-10-12T02:48:11.295Z,99.61
2022-10-12T02:50:38.229Z,100.00
2022-10-12T02:53:05.254Z,99.90
2022-10-12T02:55:31.984Z,99.90
2022-10-12T02:57:58.565Z,100.00
2022-10-12T03:00:25.167Z,100.00
2022-10-12T03:02:51.744Z,100.00
2022-10-12T03:05:19.643Z,100.00
2022-10-12T03:07:46.180Z,100.00
2022-10-12T03:10:12.732Z,100.00
2022-10-12T03:12:39.250Z,100.00
2022-10-12T03:15:06.617Z,100.00
2022-10-12T03:17:33.153Z,100.00
2022-10-12T03:19:59.681Z,99.86
2022-10-12T03:22:27.573Z,100.00
2022-10-12T03:24:54.108Z,99.97
2022-10-12T03:27:20.658Z,100.00
2022-10-12T03:29:47.179Z,100.00
2022-10-12T03:32:13.751Z,100.00
2022-10-12T03:34:40.247Z,100.00
2022-10-12T03:37:06.822Z,100.00
2022-10-12T03:39:34.709Z,100.00
2022-10-12T03:42:01.360Z,100.00
2022-10-12T03:44:27.879Z,100.00
2022-10-12T03:46:54.456Z,100.00
2022-10-12T03:49:20.983Z,100.00
2022-10-12T03:51:47.608Z,100.00
2022-10-12T03:54:14.313Z,100.00
2022-10-12T03:56:42.263Z,100.00
2022-10-12T03:59:08.904Z,100.00
2022-10-12T04:01:35.506Z,100.00
2022-10-12T04:04:02.077Z,100.00
2022-10-12T04:06:29.019Z,100.00
2022-10-12T04:08:55.554Z,99.68
2022-10-12T04:11:22.133Z,99.16
2022-10-12T04:13:49.991Z,98.86
2022-10-12T04:16:16.660Z,98.31
2022-10-12T04:18:43.158Z,98.18
2022-10-12T04:21:13.106Z,98.06
2022-10-12T04:23:39.747Z,97.96
2022-10-12T04:26:06.808Z,98.25
2022-10-12T04:28:33.750Z,98.21
2022-10-12T04:31:01.649Z,98.20
2022-10-12T04:33:28.194Z,98.29
2022-10-12T04:35:54.708Z,98.50
2022-10-12T04:38:21.237Z,98.21
2022-10-12T04:40:48.392Z,97.19
2022-10-12T04:43:15.321Z,96.96
2022-10-12T04:45:41.940Z,96.37
2022-10-12T04:48:09.937Z,96.67
2022-10-12T04:50:36.646Z,96.84
2022-10-12T04:53:03.196Z,97.43
2022-10-12T04:55:29.695Z,97.46
2022-10-12T04:57:56.218Z,97.17
2022-10-12T05:00:22.714Z,96.60
2022-10-12T05:02:49.290Z,96.39
2022-10-12T05:05:17.275Z,96.47
2022-10-12T05:07:43.833Z,96.33
2022-10-12T05:10:10.463Z,96.00
2022-10-12T05:12:37.305Z,95.65
2022-10-12T05:15:04.723Z,96.46
2022-10-12T05:17:31.278Z,96.30
2022-10-12T05:19:57.822Z,96.70
2022-10-12T05:22:25.789Z,96.45
2022-10-12T05:24:53.905Z,95.99
2022-10-12T05:27:20.790Z,95.93
2022-10-12T05:29:47.339Z,96.18
2022-10-12T05:32:13.928Z,96.40
2022-10-12T05:34:40.483Z,96.63
2022-10-12T05:37:07.024Z,96.58
2022-10-12T05:39:34.954Z,96.07
2022-10-12T05:42:01.519Z,95.85
2022-10-12T05:44:28.098Z,95.28
2022-10-12T05:46:54.666Z,96.35
2022-10-12T05:49:21.969Z,96.48
2022-10-12T05:51:48.509Z,96.61
2022-10-12T05:54:15.064Z,96.60
2022-10-12T05:56:42.995Z,96.22
2022-10-12T05:59:10.617Z,95.91
2022-10-12T06:01:37.234Z,96.01
2022-10-12T06:04:04.150Z,95.83
2022-10-12T06:06:30.769Z,95.67
2022-10-12T06:08:57.320Z,95.52
2022-10-12T06:11:23.873Z,95.42
2022-10-12T06:13:51.798Z,95.19
2022-10-12T06:16:18.336Z,95.54
2022-10-12T06:18:44.896Z,95.11
2022-10-12T06:23:58.102Z,94.90
2022-10-12T06:26:24.759Z,94.82
2022-10-12T06:28:52.764Z,94.92
2022-10-12T06:31:19.503Z,94.88
2022-10-12T06:33:46.071Z,95.71
2022-10-12T06:36:12.596Z,95.19
2022-10-12T06:38:39.139Z,94.85
2022-10-12T06:41:05.998Z,94.58
2022-10-12T06:43:32.539Z,95.06
2022-10-12T06:46:01.663Z,94.96
2022-10-12T06:48:28.427Z,95.08
2022-10-12T06:50:55.116Z,95.17
2022-10-12T06:53:21.712Z,95.14
2022-10-12T06:55:48.309Z,94.89
2022-10-12T06:58:14.854Z,94.60
2022-10-12T07:00:41.434Z,95.28
2022-10-12T07:03:12.144Z,94.88
2022-10-12T07:05:38.753Z,94.46
2022-10-12T07:08:05.286Z,93.47
2022-10-12T07:10:31.839Z,92.66
2022-10-12T07:12:58.372Z,92.49
2022-10-12T07:15:25.007Z,91.62
2022-10-12T07:17:51.534Z,91.62
2022-10-12T07:20:19.450Z,91.63
2022-10-12T07:22:45.967Z,91.12
2022-10-12T07:25:12.514Z,92.07
2022-10-12T07:27:39.392Z,91.34
2022-10-12T07:30:07.398Z,90.49
2022-10-12T07:32:33.938Z,89.87
2022-10-12T07:35:00.459Z,89.61
2022-10-12T07:37:28.386Z,89.49
2022-10-12T07:39:54.927Z,89.18
2022-10-12T07:42:21.448Z,89.00
2022-10-12T07:44:47.994Z,89.05
2022-10-12T07:47:14.653Z,88.66
2022-10-12T07:49:41.253Z,89.34
2022-10-12T07:52:07.784Z,88.39
2022-10-12T07:54:35.722Z,87.97
2022-10-12T07:57:02.285Z,87.94
2022-10-12T07:59:28.977Z,87.61
2022-10-12T08:01:55.603Z,87.55
2022-10-12T08:04:22.223Z,87.35
2022-10-12T08:06:48.772Z,87.13
2022-10-12T08:09:15.335Z,87.36
2022-10-12T08:11:43.212Z,86.65
2022-10-12T08:14:13.588Z,85.75
2022-10-12T08:16:41.783Z,85.21
2022-10-12T08:19:08.344Z,84.14
2022-10-12T08:21:34.896Z,83.44
2022-10-12T08:24:01.530Z,82.99
2022-10-12T08:26:28.087Z,82.44
2022-10-12T08:28:56.180Z,81.62
2022-10-12T08:31:22.782Z,81.25
2022-10-12T08:33:49.316Z,79.85
2022-10-12T08:36:16.094Z,80.30
2022-10-12T08:38:42.661Z,80.00
2022-10-12T08:41:23.898Z,79.54
2022-10-12T08:44:28.443Z,79.42
2022-10-12T08:46:56.620Z,78.94
2022-10-12T08:49:26.179Z,78.52
2022-10-12T08:51:55.143Z,77.64
2022-10-12T08:54:24.836Z,77.23
2022-10-12T08:56:53.369Z,77.23
2022-10-12T08:59:20.097Z,77.45
2022-10-12T09:02:01.877Z,77.47
2022-10-12T09:04:45.214Z,77.89
2022-10-12T09:07:17.984Z,77.03
2022-10-12T09:09:57.611Z,75.38
2022-10-12T09:12:38.079Z,75.61
2022-10-12T09:15:11.963Z,75.38
2022-10-12T09:17:44.387Z,75.56
2022-10-12T09:20:17.676Z,75.61
2022-10-12T09:22:47.832Z,75.36
2022-10-12T09:25:16.439Z,74.90
2022-10-12T09:27:45.480Z,75.28
2022-10-12T09:30:14.497Z,75.13
2022-10-12T09:32:59.026Z,75.57
2022-10-12T09:35:25.682Z,75.73
2022-10-12T09:37:53.624Z,74.78
2022-10-12T09:40:22.946Z,74.25
2022-10-12T09:42:50.838Z,73.35
2022-10-12T09:45:19.736Z,73.69
2022-10-12T09:48:13.562Z,73.84
2022-10-12T09:50:42.178Z,73.60
2022-10-12T09:53:15.013Z,73.37
2022-10-12T09:55:52.951Z,73.98
2022-10-12T09:58:21.400Z,73.63
2022-10-12T10:01:15.776Z,74.17
2022-10-12T10:03:43.717Z,71.68
2022-10-12T10:06:10.420Z,72.20
2022-10-12T10:08:42.458Z,71.76
2022-10-12T10:11:15.139Z,72.98
2022-10-12T10:13:48.060Z,73.32
2022-10-12T10:16:14.878Z,72.18
2022-10-12T10:18:45.011Z,71.58
2022-10-12T10:21:13.719Z,71.06
2022-10-12T10:23:44.564Z,71.08
2022-10-12T10:26:14.133Z,71.61
2022-10-12T10:28:42.642Z,70.25
2022-10-12T10:31:18.466Z,70.85
2022-10-12T10:34:04.403Z,71.06
2022-10-12T10:36:34.329Z,70.54
2022-10-12T10:39:02.736Z,70.42
2022-10-12T10:41:34.523Z,71.00
2022-10-12T10:44:01.117Z,70.97
2022-10-12T10:46:30.931Z,71.51
2022-10-12T10:49:01.445Z,71.54
2022-10-12T10:51:43.326Z,71.25
2022-10-12T10:54:13.942Z,71.44
2022-10-12T10:56:40.673Z,70.74
2022-10-12T10:59:19.008Z,69.48
2022-10-12T11:01:52.919Z,70.09
2022-10-12T11:04:26.154Z,70.56
2022-10-12T11:06:55.743Z,70.61
2022-10-12T11:09:26.817Z,70.47
2022-10-12T11:11:57.620Z,70.17
2022-10-12T11:14:31.029Z,70.75
2022-10-12T11:17:00.985Z,70.63
2022-10-12T11:19:33.979Z,70.95
2022-10-12T11:22:04.740Z,71.50
2022-10-12T11:24:38.493Z,72.39
2022-10-12T11:27:11.015Z,72.36
2022-10-12T11:29:38.191Z,72.11
2022-10-12T11:32:12.412Z,71.10
2022-10-12T11:34:48.365Z,73.49
2022-10-12T11:37:20.949Z,72.50
2022-10-12T11:39:51.725Z,72.17
2022-10-12T11:42:27.424Z,72.85
2022-10-12T11:44:54.809Z,72.36
2022-10-12T11:47:31.390Z,72.79
2022-10-12T11:50:02.274Z,72.55
2022-10-12T11:52:35.902Z,73.53
2022-10-12T11:55:25.049Z,73.98
2022-10-12T11:57:54.310Z,73.38
2022-10-12T12:00:24.882Z,72.37
2022-10-12T12:02:58.810Z,72.28
2022-10-12T12:05:31.169Z,70.98
2022-10-12T12:07:57.833Z,70.88
2022-10-12T12:10:44.487Z,71.00
2022-10-12T12:13:20.291Z,70.78
2022-10-12T12:16:31.651Z,69.48
2022-10-12T12:19:30.763Z,68.63
2022-10-12T12:22:26.964Z,68.73
2022-10-12T12:25:19.253Z,68.32
2022-10-12T12:27:49.918Z,67.84
2022-10-12T12:30:36.872Z,67.56
2022-10-12T12:33:07.013Z,66.42
2022-10-12T12:35:38.368Z,65.36
2022-10-12T12:38:16.825Z,65.65
2022-10-12T12:41:05.705Z,65.63
2022-10-12T12:44:01.351Z,66.25
2022-10-12T12:47:32.609Z,67.21
2022-10-12T12:49:57.181Z,67.92
2022-10-12T12:52:27.501Z,67.07
2022-10-12T12:55:27.033Z,67.09
2022-10-12T12:58:15.048Z,65.53
2022-10-12T13:00:56.654Z,65.12
2022-10-12T13:04:03.130Z,64.92
2022-10-12T13:07:29.269Z,63.60
2022-10-12T13:10:22.030Z,62.43
2022-10-12T13:13:11.140Z,63.74
2022-10-12T13:15:49.717Z,63.96
2022-10-12T13:18:47.621Z,62.73
2022-10-12T13:21:19.246Z,63.21
2022-10-12T13:23:49.039Z,62.59
2022-10-12T13:26:21.710Z,63.67
2022-10-12T13:28:49.103Z,63.81
2022-10-12T13:31:19.818Z,63.02
2022-10-12T13:33:53.975Z,63.99
2022-10-12T13:36:23.360Z,64.37
2022-10-12T13:38:55.700Z,64.04
2022-10-12T13:41:25.119Z,65.45
2022-10-12T13:43:54.273Z,65.82
2022-10-12T13:46:40.649Z,65.91
2022-10-12T13:49:14.444Z,66.72
2022-10-12T13:51:42.766Z,65.33
2022-10-12T13:54:17.540Z,65.46
2022-10-12T13:56:47.812Z,66.46
2022-10-12T13:59:19.080Z,67.54
2022-10-12T14:01:50.503Z,68.12
2022-10-12T14:04:17.064Z,67.79
2022-10-12T14:06:47.919Z,68.25
2022-10-12T14:09:18.447Z,68.90
2022-10-12T14:11:47.063Z,69.05
2022-10-12T14:14:20.344Z,69.05
2022-10-12T14:16:46.923Z,69.93
2022-10-12T14:19:21.715Z,70.51
2022-10-12T14:21:49.019Z,71.54
2022-10-12T14:24:18.805Z,71.73
2022-10-12T14:26:54.327Z,71.90
2022-10-12T14:29:36.201Z,72.79
2022-10-12T14:32:03.549Z,73.24
2022-10-12T14:34:42.163Z,73.82
2022-10-12T14:37:28.855Z,74.58
2022-10-12T14:39:56.423Z,74.96
2022-10-12T14:42:29.671Z,75.24
2022-10-12T14:44:56.332Z,75.71
2022-10-12T14:47:25.246Z,75.25
2022-10-12T14:49:54.128Z,75.92
2022-10-12T14:52:24.788Z,75.62
2022-10-12T14:54:51.666Z,76.43
2022-10-12T14:57:19.396Z,76.60
2022-10-12T14:59:47.703Z,76.99
2022-10-12T15:02:19.523Z,77.31
2022-10-12T15:04:46.699Z,77.21
2022-10-12T15:07:15.850Z,77.31
2022-10-12T15:09:42.456Z,76.86
2022-10-12T15:12:11.768Z,76.23
2022-10-12T15:14:38.340Z,76.14
2022-10-12T15:17:06.204Z,76.00
2022-10-12T15:19:32.778Z,76.51
2022-10-12T15:21:59.285Z,76.97
2022-10-12T15:24:25.819Z,77.08
2022-10-12T15:26:52.411Z,76.47
2022-10-12T15:29:18.941Z,77.29
2022-10-12T15:31:48.969Z,77.15
2022-10-12T15:34:19.003Z,77.15
2022-10-12T15:36:45.555Z,78.09
2022-10-12T15:39:12.143Z,78.47
2022-10-12T15:41:38.727Z,78.65
2022-10-12T15:44:06.270Z,79.24
2022-10-12T15:46:32.809Z,79.12
2022-10-12T15:48:59.293Z,79.97
2022-10-12T15:51:27.211Z,80.39
2022-10-12T15:53:54.597Z,81.14
2022-10-12T15:56:22.326Z,82.08
2022-10-12T15:58:49.022Z,83.10
2022-10-12T16:01:19.854Z,83.61
2022-10-12T16:03:47.438Z,83.92
2022-10-12T16:06:14.406Z,84.44
2022-10-12T16:08:42.463Z,85.15
2022-10-12T16:11:13.131Z,85.37
2022-10-12T16:13:46.365Z,85.48
2022-10-12T16:16:15.627Z,86.15
2022-10-12T16:18:42.187Z,86.85
2022-10-12T16:21:09.096Z,87.70
2022-10-12T16:23:36.990Z,87.35
2022-10-12T16:26:08.120Z,88.04
2022-10-12T16:28:34.869Z,88.00
2022-10-12T16:31:01.678Z,88.58
2022-10-12T16:33:28.218Z,88.92
2022-10-12T16:35:54.786Z,89.41
2022-10-12T16:38:21.339Z,89.97
2022-10-12T16:40:48.152Z,90.07
2022-10-12T16:43:16.023Z,90.55
2022-10-12T16:45:42.554Z,89.81
2022-10-12T16:48:09.119Z,89.81
2022-10-12T16:50:38.466Z,90.22
2022-10-12T16:53:04.994Z,90.14
2022-10-12T16:55:31.554Z,90.64
2022-10-12T16:57:58.074Z,90.65
2022-10-12T17:00:25.953Z,90.89
2022-10-12T17:02:57.266Z,90.63
2022-10-12T17:05:24.103Z,90.41
2022-10-12T17:07:50.617Z,90.66
2022-10-12T17:10:17.286Z,90.42
2022-10-12T17:12:43.814Z,90.75
2022-10-12T17:15:10.588Z,91.42
2022-10-12T17:17:38.437Z,91.19
2022-10-12T17:20:05.787Z,91.07
2022-10-12T17:22:32.319Z,92.07
2022-10-12T17:24:58.828Z,92.38
2022-10-12T17:27:29.899Z,92.42
2022-10-12T17:29:58.786Z,92.17
2022-10-12T17:32:25.310Z,91.80
2022-10-12T17:34:53.238Z,91.23
2022-10-12T17:37:19.767Z,91.55
2022-10-12T17:39:46.439Z,91.24
2022-10-12T17:42:13.388Z,91.14
2022-10-12T17:44:40.196Z,91.03
2022-10-12T17:47:06.986Z,90.98
2022-10-12T17:49:33.533Z,91.15
2022-10-12T17:52:01.394Z,90.82
2022-10-12T17:54:27.976Z,90.49
2022-10-12T17:56:55.114Z,90.60
2022-10-12T17:59:22.188Z,91.82
2022-10-12T18:01:49.708Z,91.45
2022-10-12T18:04:16.325Z,91.23
2022-10-12T18:06:43.027Z,91.64
2022-10-12T18:09:11.524Z,91.93
2022-10-12T18:11:38.286Z,91.71
2022-10-12T18:14:07.186Z,92.21
2022-10-12T18:16:34.455Z,92.69
2022-10-12T18:19:03.122Z,92.11
2022-10-12T18:21:31.955Z,92.81
2022-10-12T18:24:01.121Z,93.33
2022-10-12T18:26:29.055Z,94.44
2022-10-12T18:28:55.876Z,94.30
2022-10-12T18:31:24.165Z,94.72
2022-10-12T18:33:51.180Z,94.67
2022-10-12T18:36:19.246Z,94.94
2022-10-12T18:38:46.266Z,95.02
2022-10-12T18:41:16.165Z,95.42
2022-10-12T18:43:44.403Z,95.57
2022-10-12T18:46:13.291Z,95.03
2022-10-12T18:48:40.683Z,95.03
2022-10-12T18:51:09.311Z,95.10
2022-10-12T18:53:35.863Z,94.88
2022-10-12T18:56:03.374Z,94.55
2022-10-12T18:58:30.126Z,95.08
2022-10-12T19:00:58.313Z,94.79
2022-10-12T19:03:26.197Z,94.58
2022-10-12T19:06:01.816Z,94.67
2022-10-12T19:08:28.450Z,94.47
2022-10-12T19:10:54.960Z,94.39
2022-10-12T19:13:21.505Z,94.43
2022-10-12T19:15:48.025Z,95.31
2022-10-12T19:18:15.908Z,95.37
2022-10-12T19:20:42.438Z,95.81
2022-10-12T19:23:08.985Z,95.60
2022-10-12T19:25:37.112Z,96.07
2022-10-12T19:28:03.729Z,96.40
2022-10-12T19:30:30.288Z,96.69
2022-10-12T19:32:56.846Z,96.99
2022-10-12T19:35:24.710Z,97.20
2022-10-12T19:37:51.302Z,97.54
2022-10-12T19:40:18.932Z,97.09
2022-10-12T19:42:47.066Z,97.11
2022-10-12T19:45:13.614Z,97.77
2022-10-12T19:47:40.188Z,97.62
2022-10-12T19:50:06.949Z,97.27
2022-10-12T19:52:34.825Z,97.12
2022-10-12T19:55:01.330Z,97.02
2022-10-12T19:57:27.879Z,97.25
2022-10-12T19:59:54.400Z,97.68
2022-10-12T20:02:21.262Z,97.34
2022-10-12T20:04:47.956Z,97.20
2022-10-12T20:07:14.490Z,97.36
2022-10-12T20:09:42.373Z,97.32
2022-10-12T20:12:08.935Z,97.11
2022-10-12T20:14:35.471Z,96.68
2022-10-12T20:17:02.004Z,96.78
2022-10-12T20:19:28.737Z,96.86
2022-10-12T20:21:55.309Z,97.10
2022-10-12T20:24:21.876Z,96.81
2022-10-12T20:26:49.767Z,97.16
2022-10-12T20:29:16.310Z,96.86
2022-10-12T20:31:42.874Z,96.78
2022-10-12T20:34:09.429Z,96.92
2022-10-12T20:36:36.143Z,96.51
2022-10-12T20:39:03.405Z,96.60
2022-10-12T20:41:29.963Z,96.45
2022-10-12T20:43:59.921Z,95.96
2022-10-12T20:46:27.845Z,96.30
2022-10-12T20:48:58.600Z,96.21
2022-10-12T20:51:27.811Z,96.68
2022-10-12T20:53:54.951Z,96.72
2022-10-12T20:56:21.527Z,96.78
2022-10-12T20:58:48.085Z,96.82
2022-10-12T21:01:17.184Z,96.53
2022-10-12T21:03:43.935Z,96.47
2022-10-12T21:06:13.214Z,96.13
2022-10-12T21:08:40.230Z,95.99
2022-10-12T21:11:07.581Z,96.18
2022-10-12T21:13:35.678Z,96.90
2022-10-12T21:16:02.228Z,96.60
2022-10-12T21:18:34.058Z,96.65
2022-10-12T21:21:06.152Z,97.11
2022-10-12T21:23:32.703Z,96.89
2022-10-12T21:25:59.271Z,97.01
2022-10-12T21:28:25.821Z,96.38
2022-10-12T21:30:52.403Z,96.31
2022-10-12T21:33:18.926Z,96.53
2022-10-12T21:35:46.852Z,96.29
2022-10-12T21:38:13.385Z,96.72
2022-10-12T21:40:39.943Z,96.73
2022-10-12T21:43:06.508Z,96.52
2022-10-12T21:45:33.212Z,96.38
2022-10-12T21:47:59.771Z,97.00
2022-10-12T21:50:26.813Z,96.93
2022-10-12T21:53:00.065Z,97.28
2022-10-12T21:55:27.033Z,97.04
2022-10-12T21:57:53.568Z,97.24
2022-10-12T22:00:20.187Z,96.43
2022-10-12T22:02:46.703Z,96.39
2022-10-12T22:05:13.413Z,96.43
2022-10-12T22:07:41.642Z,96.78
2022-10-12T22:10:10.756Z,96.51
2022-10-12T22:12:38.075Z,96.16
2022-10-12T22:15:05.476Z,95.96
2022-10-12T22:17:32.006Z,95.88
2022-10-12T22:19:58.537Z,96.18
2022-10-12T22:22:25.080Z,97.07
2022-10-12T22:24:51.602Z,96.96
2022-10-12T22:27:19.558Z,97.04
2022-10-12T22:29:46.142Z,96.82
2022-10-12T22:32:12.706Z,96.48
2022-10-12T22:34:39.244Z,96.56
2022-10-12T22:37:05.764Z,96.57
2022-10-12T22:39:32.295Z,96.68
2022-10-12T22:41:58.827Z,96.55
2022-10-12T22:44:26.717Z,96.70
2022-10-12T22:46:53.263Z,96.77
2022-10-12T22:49:19.973Z,97.34
2022-10-12T22:51:46.471Z,97.29
2022-10-12T22:54:13.019Z,97.02
2022-10-12T22:56:39.965Z,96.77
2022-10-12T22:59:06.950Z,96.64
2022-10-12T23:01:35.871Z,97.08
2022-10-12T23:04:02.541Z,97.10
2022-10-12T23:06:29.075Z,96.55
2022-10-12T23:08:55.653Z,96.26
2022-10-12T23:11:24.639Z,96.00
2022-10-12T23:13:51.715Z,96.38
2022-10-12T23:16:20.420Z,96.16
2022-10-12T23:18:56.660Z,95.67
2022-10-12T23:21:26.004Z,95.72
2022-10-12T23:23:52.587Z,95.86
2022-10-12T23:26:21.111Z,95.98
2022-10-12T23:28:48.945Z,96.28
2022-10-12T23:31:17.337Z,96.47
2022-10-12T23:33:44.139Z,96.89
2022-10-12T23:36:14.184Z,97.16
2022-10-12T23:38:42.007Z,97.02
2022-10-12T23:41:09.496Z,97.41
2022-10-12T23:43:36.231Z,97.41
2022-10-12T23:46:03.507Z,97.34
2022-10-12T23:48:30.045Z,97.49
2022-10-12T23:50:56.745Z,97.28
2022-10-12T23:53:25.334Z,97.29
2022-10-12T23:55:52.465Z,97.26
2022-10-12T23:58:19.524Z,97.46
